Flight Track Log - Related Links

Times and Time Zones

All times are in EDT time to prevent confusion due to time zone crossing. See the WIG7117 flight status page for this flight to view local times or setup timezone preferences in your user account.


Time Position Orientation Groundspeed Altitude Reporting Facility
EDT Latitude Longitude Course Direction KTS MPH feet Rate Location/Type
Wed 10:11:54 PM 42.7422 -73.8083 283° West 61 70 1,100  Level Boston Center
Wed 10:13:00 PM 42.7481 -73.8425 283° West 101 116 2,400 1,039 Climbing Boston Center
Wed 10:14:01 PM 42.7519 -73.8822 278° West 116 133 3,300 985 Climbing Boston Center
Wed 10:15:14 PM 42.7636 -73.9417 285° West 135 155 4,600 1,030 Climbing Boston Center
Wed 10:16:15 PM 42.7711 -73.9900 282° West 131 151 5,600 1,041 Climbing Boston Center
Wed 10:17:15 PM 42.7811 -74.0356 287° West 124 143 6,700 992 Climbing Boston Center
Wed 10:18:22 PM 42.7867 -74.0808 280° West 118 136 7,700 645 Climbing Boston Center
Wed 10:19:16 PM 42.7944 -74.1264 283° West 123 142 8,000 220 Climbing Boston Center
Wed 10:20:11 PM 42.8019 -74.1747 282° West 145 167 8,100  Climbing Boston Center
Wed 10:21:06 PM 42.8117 -74.2258 285° West 147 169 8,000 -57 Descending Boston Center
Wed 10:21:57 PM 42.8169 -74.2714 279° West 145 167 8,000  Level Boston Center
Wed 10:22:58 PM 42.8267 -74.3228 284° West 144 166 8,000  Level Boston Center
Wed 10:23:59 PM 42.8361 -74.3739 284° West 146 168 8,000  Level Boston Center
Wed 10:24:59 PM 42.8456 -74.4308 283° West 146 168 8,000  Level Boston Center
Wed 10:26:00 PM 42.8550 -74.4878 283° West 145 167 8,000 50 Level Boston Center
Wed 10:27:00 PM 42.8625 -74.5419 281° West 144 166 8,100 50 Climbing Boston Center
Wed 10:28:01 PM 42.8719 -74.5961 283° West 144 166 8,100 -49 Level Boston Center
Wed 10:29:02 PM 42.8814 -74.6475 284° West 145 167 8,000  Descending Boston Center
Wed 10:30:02 PM 42.8906 -74.6986 284° West 142 163 8,100  Climbing Boston Center
Wed 10:31:03 PM 42.9000 -74.7531 283° West 143 165 8,000 -50 Descending Boston Center
Wed 10:32:03 PM 42.9092 -74.8100 282° West 146 168 8,000 50 Level Boston Center
Wed 10:33:04 PM 42.9164 -74.8642 280° West 143 165 8,100 49 Climbing Boston Center
Wed 10:34:05 PM 42.9258 -74.9156 284° West 144 166 8,100  Level Boston Center
Wed 10:35:05 PM 42.9350 -74.9697 283° West 145 167 8,100  Level Boston Center
Wed 10:36:06 PM 42.9442 -75.0214 284° West 144 166 8,100  Level Boston Center
Wed 10:37:07 PM 42.9514 -75.0756 280° West 144 166 8,100  Level Boston Center
Wed 10:38:07 PM 42.9586 -75.1269 281° West 144 166 8,100  Level Boston Center
Wed 10:39:08 PM 42.9675 -75.1869 281° West 145 167 8,100  Level Boston Center
Wed 10:40:08 PM 42.9767 -75.2383 284° West 145 167 8,100  Level Boston Center
Wed 10:41:09 PM 42.9858 -75.2928 283° West 146 168 8,100  Level Boston Center
Wed 10:42:10 PM 42.9928 -75.3469 280° West 147 169 8,100  Level Boston Center
Wed 10:43:10 PM 43.0017 -75.4014 283° West 146 168 8,100  Level Boston Center
Wed 10:44:11 PM 43.0086 -75.4583 279° West 146 168 8,100  Level Boston Center
Wed 10:45:11 PM 43.0197 -75.5103 286° West 146 168 8,100  Level Boston Center
Wed 10:46:12 PM 43.0286 -75.5644 283° West 146 168 8,100  Level Boston Center
Wed 10:47:13 PM 43.0353 -75.6217 279° West 147 169 8,100 -99 Level Boston Center
Wed 10:48:13 PM 43.0464 -75.6764 286° West 148 170 7,900 -347 Descending Boston Center
Wed 10:49:14 PM 43.0550 -75.7364 281° West 160 184 7,400 -492 Descending Boston Center
Wed 10:50:15 PM 43.0658 -75.7997 283° West 162 186 6,900 -545 Descending Boston Center
Wed 10:51:15 PM 43.0744 -75.8542 282° West 162 186 6,300 -545 Descending Boston Center
Wed 10:52:16 PM 43.0936 -75.9150 293° West 164 189 5,800 -1,488 Descending Boston Center
Wed 10:53:16 PM 43.1044 -75.9667 286° West 151 174 3,300 -2,132 Descending Boston Center
Wed 10:54:17 PM 43.1106 -76.0411 276° West 178 205 1,500 -1,770 Descending Boston Center
Wed 10:56:00 PM 43.1000 -76.1000 270° West  Level FlightAware Approximate
Wed 11:03:00 PM 43.1112 -76.1063 270° West  Level Estimated
Wed 11:04:00 PM 43.1112 -76.1063 270° West  Level Estimated
Wed 11:05:00 PM 43.1112 -76.1063 270° West  Level Estimated
Wed 11:06:00 PM 43.1112 -76.1063 270° West  Level Estimated
Wed 11:07:00 PM 43.1112 -76.1063 270° West  Level Estimated
Wed 11:08:00 PM 43.1112 -76.1063 270° West  Level Estimated
Wed 11:09:00 PM 43.1112 -76.1063 270° West  Level Estimated
Wed 11:10:00 PM 43.1112 -76.1063 270° West  Level Estimated

Login

Don't have an account? Register now (free) for customized features, flight alerts, and more!